Etusivu
METAR-TAF:

METAR-TAF

Lentoasemat :

Kramfors, Ruotsi

Leveyspiiri: 63-03N, Pituuspiiri: 017-46E, korkeus merenpinnasta: 10 m

Tämänhetkinen sää

Tämä raportti tehtiin 41 minuuttia sitten, kello 20.20 UTC
Tuuli 2 kn eri suunnista
Lämpötila 13°C
Kosteus 94%
Ilmanpaine 1001 hPa
Näkyvyys 10 km tai enemmän

METAR: ESNK 182020Z AUTO VRB02KT 9999 OVC007/// 13/12 Q1001

Aika: 23:01 (21:01 UTC)

Sääennuste

Tämä raportti tehtiin 3 tuntia ja 31 minuuttia sitten, kello 17.30 UTC
Ennuste voimassa 18. päivästä klo 18 UTC - 18. päivään klo 20 UTC
Tuuli 5 kn etelästä/kaakosta
Näkyvyys 10 km tai enemmän
Hajonneita pilviä 2000 ft:n korkeudessa
Todennäköisyys 40%
18. päivästä klo 18 UTC - 18. päivään klo 20 UTC
Näkyvyys: 1400 m
Hajonneita pilviä 800 ft:n korkeudessa
utua

TAF: ESNK 181730Z 1818/1820 15005KT 9999 BKN020 PROB40 1818/1820 1400 BR BKN008

Säähavainnot ja -ennusteet yli 4000 lentoasemalta (METAR- ja TAF-raportit).

Käytössä olevat sääasemat on merkitty karttaan keltaisilla ja punaisilla pisteillä.

Aseta hiiri pisteen päälle nähdäksesi sääaseman nimen.

Klikkaa sitten nähdäksesi säähavainnot ja -ennusteet.

Kartan vaihtaminen: klikkaa mustalla rastilla varustettuja vihreitä pisteitä, niin voit zoomata sisään; viivalla varustettua vihreää pistettä, niin voit zoomata ulos tai vihreitä nuolia, niin pääset viereisille kartoille.


METAR-TAF: